Ana Sayfa
METAR-TAF:

METAR-TAF

Havaalanları :

Harrisburg, Pensilvanya, Amerika Birleşik Devletleri

Enlem: 40-13-02N, Boylam: 076-51-05W, yükseklik: 106 m

Güncel hava durumu gözlemi

Rapor saat 08:25 UTC de 12 dakika önce yapıldı.
Rüzgar değişken yönden 3 kt
Sıcaklık 21°C
Nem 88%
Basınç 1014 hPa
Görüş mesafesi: 2.8 km
3500 ft yükseklikte parçalı çok bulutlu
7000 ft yükseklikte çok bulutlu
şiddetli yağmur, Pus

METAR: KCXY 180825Z AUTO VRB03KT 1 3/4SM R08/5000VP6000FT +RA BR BKN035 OVC070 21/19 A2994 RMK AO2 P0025 T02060194

Saat: 04:37 (08:37 UTC)


TAF: eksik

4.000'den fazla havaalanı için hava durumu gözlemleri ve tahminleri (METAR ve TAF raporları).

Kullanılabilir istasyonlar harita üzerinde sarı ve kırmızı noktalarla gösterilir.

İstasyonun adını görmek için fareyi noktanın üzerinde gezdirin.

Sonrasında hava gözlem ve tahminlerini görmek için tıklayın.

Haritayı değiştirmek için: yaklaştırmak için siyah artı işaretli yeşil düğmeye ve uzaklaştırmak için de eksi işaretli düğmeye hızla tıklayın; bitişik haritalar için yeşil okları kullanın.


METAR-TAF: